CYDF/YDF METAR and TAF weather

Enter ICAO airport designator
Station Type Date Time Source
CYDF METAR 2021/07/26 17:00 UTC NOAA

CYDF 261700Z 25005KT 210V280 15SM SCT040 BKN210 24/14 A2989 RMK CU3CI3 SLP123 DENSITY ALT 1200FT


Station Type Date Time Source
CYDF Decoded METAR 2021/07/26 17:00 UTC NOAA

Deer Lake, Nfld., Canada (CYDF) 49-13N 057-24W 22M
Jul 26, 2021 - 01:00 PM EDT / 2021.07.26 1700 UTC
Wind: from the WSW (250 degrees) at 6 MPH (5 KT) (direction variable):0
Visibility: 15 mile(s):0
Sky conditions: mostly cloudy
Temperature: 75 F (24 C)
Dew Point: 57 F (14 C)
Relative Humidity: 53%
Pressure (altimeter): 29.89 in. Hg (1012 hPa)
ob: CYDF 261700Z 25005KT 210V280 15SM SCT040 BKN210 24/14 A2989 RMK CU3CI3 SLP123 DENSITY ALT 1200FT
cycle: 17

Station Type Date Time Source
CYDF TAF 2021/07/26 14:39 UTC NOAA

TAF CYDF 261338Z 2614/2702 19005KT P6SM FEW015 BKN210
FM261800 20008KT P6SM BKN060
FM262000 22010KT P6SM BKN040
TEMPO 2620/2624 P6SM -SHRA
FM270000 20010KT P6SM SCT020 BKN040
TEMPO 2700/2702 P6SM -SHRA BKN020
RMK NXT FCST BY 262000Z

Example: see airport list